Terminal Aerodrome Forecast
Issued by NWS

Home | Current Version | Previous Version | Text Only | Print | Product List | Glossary On
Versions: 1 2 3 4 5 6 7 8 9 10 11 12 13 14 15 16 17 18 19 20 21 22
000
FTUS43 KDDC 240520
TAFGCK
TAF
KGCK 240520Z 2406/2506 VRB04KT P6SM BKN080 OVC100
     FM240900 VRB04KT P6SM SCT090
     FM241500 17009KT P6SM SCT090
     FM242100 13010KT P6SM OVC080
     FM250300 08009KT P6SM BKN080=

USA.gov is the U.S. government's official web portal to all federal, state and local government web resources and services.